sensor_id;sensor_type;location;lat;lon;timestamp;pressure;altitude;pressure_sealevel;temperature;humidity
10732;BME280;5417;42.686;23.244;2023-11-19T00:01:45;94258.53;;;5.41;62.27
10732;BME280;5417;42.686;23.244;2023-11-19T00:04:14;94267.53;;;5.48;61.76
10732;BME280;5417;42.686;23.244;2023-11-19T00:06:41;94264.31;;;5.44;61.82
10732;BME280;5417;42.686;23.244;2023-11-19T00:09:08;94266.72;;;5.47;61.81
10732;BME280;5417;42.686;23.244;2023-11-19T00:11:35;94259.66;;;5.36;62.08
10732;BME280;5417;42.686;23.244;2023-11-19T00:14:04;94264.31;;;5.44;62.12
10732;BME280;5417;42.686;23.244;2023-11-19T00:16:34;94265.78;;;5.48;62.02
10732;BME280;5417;42.686;23.244;2023-11-19T00:19:01;94271.13;;;5.45;61.86
10732;BME280;5417;42.686;23.244;2023-11-19T00:21:31;94265.25;;;5.43;61.90
10732;BME280;5417;42.686;23.244;2023-11-19T00:23:59;94265.59;;;5.51;61.87
10732;BME280;5417;42.686;23.244;2023-11-19T00:26:26;94267.53;;;5.48;61.92
10732;BME280;5417;42.686;23.244;2023-11-19T00:28:53;94262.53;;;5.32;62.34
10732;BME280;5417;42.686;23.244;2023-11-19T00:31:21;94266.84;;;5.31;62.40
10732;BME280;5417;42.686;23.244;2023-11-19T00:33:50;94267.09;;;5.41;61.67
10732;BME280;5417;42.686;23.244;2023-11-19T00:36:17;94261.69;;;5.31;62.22
10732;BME280;5417;42.686;23.244;2023-11-19T00:38:46;94272.94;;;5.30;62.05
10732;BME280;5417;42.686;23.244;2023-11-19T00:41:15;94279.03;;;5.29;62.31
10732;BME280;5417;42.686;23.244;2023-11-19T00:43:42;94283.09;;;5.19;63.01
10732;BME280;5417;42.686;23.244;2023-11-19T00:46:10;94280.59;;;5.18;62.59
10732;BME280;5417;42.686;23.244;2023-11-19T00:48:40;94270.84;;;5.23;62.95
10732;BME280;5417;42.686;23.244;2023-11-19T00:51:07;94275.09;;;5.24;62.60
10732;BME280;5417;42.686;23.244;2023-11-19T00:53:34;94275.09;;;5.24;62.91
10732;BME280;5417;42.686;23.244;2023-11-19T00:56:03;94275.34;;;5.19;62.98
10732;BME280;5417;42.686;23.244;2023-11-19T00:58:30;94279.22;;;5.12;62.84
10732;BME280;5417;42.686;23.244;2023-11-19T01:00:57;94270.84;;;5.08;63.38
10732;BME280;5417;42.686;23.244;2023-11-19T01:03:26;94273.34;;;5.10;63.14
10732;BME280;5417;42.686;23.244;2023-11-19T01:05:56;94272.25;;;5.00;63.59
10732;BME280;5417;42.686;23.244;2023-11-19T01:08:25;94265.78;;;5.07;63.51
10732;BME280;5417;42.686;23.244;2023-11-19T01:10:52;94258.31;;;5.17;63.06
10732;BME280;5417;42.686;23.244;2023-11-19T01:13:21;94263.31;;;5.05;63.50
10732;BME280;5417;42.686;23.244;2023-11-19T01:15:49;94274.81;;;5.14;63.54
10732;BME280;5417;42.686;23.244;2023-11-19T01:18:16;94266.41;;;5.25;63.37
10732;BME280;5417;42.686;23.244;2023-11-19T01:20:43;94270.47;;;5.29;63.42
10732;BME280;5417;42.686;23.244;2023-11-19T01:23:11;94265.50;;;5.26;62.39
10732;BME280;5417;42.686;23.244;2023-11-19T01:25:40;94267.88;;;5.29;62.87
10732;BME280;5417;42.686;23.244;2023-11-19T01:28:07;94271.72;;;5.36;61.92
10732;BME280;5417;42.686;23.244;2023-11-19T01:30:35;94263.50;;;5.44;61.97
10732;BME280;5417;42.686;23.244;2023-11-19T01:33:02;94263.19;;;5.48;61.67
10732;BME280;5417;42.686;23.244;2023-11-19T01:35:33;94277.75;;;5.49;61.34
10732;BME280;5417;42.686;23.244;2023-11-19T01:38:00;94280.75;;;5.43;61.48
10732;BME280;5417;42.686;23.244;2023-11-19T01:40:30;94290.44;;;5.39;61.30
10732;BME280;5417;42.686;23.244;2023-11-19T01:42:57;94284.97;;;5.44;61.19
10732;BME280;5417;42.686;23.244;2023-11-19T01:45:28;94292.31;;;5.50;61.26
10732;BME280;5417;42.686;23.244;2023-11-19T01:48:02;94298.31;;;5.51;60.70
10732;BME280;5417;42.686;23.244;2023-11-19T01:50:33;94311.94;;;5.53;60.50
10732;BME280;5417;42.686;23.244;2023-11-19T01:53:03;94303.09;;;5.57;60.24
10732;BME280;5417;42.686;23.244;2023-11-19T01:55:30;94310.09;;;5.55;60.44
10732;BME280;5417;42.686;23.244;2023-11-19T01:58:02;94313.66;;;5.39;60.25
10732;BME280;5417;42.686;23.244;2023-11-19T02:00:30;94311.75;;;5.29;60.60
10732;BME280;5417;42.686;23.244;2023-11-19T02:03:00;94311.13;;;5.25;60.45
10732;BME280;5417;42.686;23.244;2023-11-19T02:05:28;94306.69;;;5.27;61.00
10732;BME280;5417;42.686;23.244;2023-11-19T02:07:57;94309.50;;;5.37;60.79
10732;BME280;5417;42.686;23.244;2023-11-19T02:10:25;94304.25;;;5.38;60.94
10732;BME280;5417;42.686;23.244;2023-11-19T02:12:52;94299.63;;;5.44;60.30
10732;BME280;5417;42.686;23.244;2023-11-19T02:15:20;94306.63;;;5.42;60.22
10732;BME280;5417;42.686;23.244;2023-11-19T02:17:49;94311.72;;;5.43;59.99
10732;BME280;5417;42.686;23.244;2023-11-19T02:20:18;94312.91;;;5.37;60.19
10732;BME280;5417;42.686;23.244;2023-11-19T02:22:46;94297.88;;;5.44;60.43
10732;BME280;5417;42.686;23.244;2023-11-19T02:25:21;94301.81;;;5.50;60.43
10732;BME280;5417;42.686;23.244;2023-11-19T02:27:53;94303.28;;;5.54;60.87
10732;BME280;5417;42.686;23.244;2023-11-19T02:30:22;94291.94;;;5.56;59.55
10732;BME280;5417;42.686;23.244;2023-11-19T02:32:52;94287.06;;;5.52;59.96
10732;BME280;5417;42.686;23.244;2023-11-19T02:35:19;94276.09;;;5.48;59.47
10732;BME280;5417;42.686;23.244;2023-11-19T02:37:48;94271.88;;;5.47;59.75
10732;BME280;5417;42.686;23.244;2023-11-19T02:40:16;94278.44;;;5.38;59.60
10732;BME280;5417;42.686;23.244;2023-11-19T02:42:44;94280.69;;;5.30;59.68
10732;BME280;5417;42.686;23.244;2023-11-19T02:45:13;94278.84;;;5.18;60.18
10732;BME280;5417;42.686;23.244;2023-11-19T02:47:40;94272.69;;;5.06;61.38
10732;BME280;5417;42.686;23.244;2023-11-19T02:50:09;94297.84;;;5.17;60.58
10732;BME280;5417;42.686;23.244;2023-11-19T02:52:40;94284.47;;;5.25;60.38
10732;BME280;5417;42.686;23.244;2023-11-19T02:55:07;94296.25;;;5.29;60.01
10732;BME280;5417;42.686;23.244;2023-11-19T02:57:41;94291.09;;;5.15;60.11
10732;BME280;5417;42.686;23.244;2023-11-19T03:00:16;94286.78;;;5.15;60.52
10732;BME280;5417;42.686;23.244;2023-11-19T03:02:44;94276.94;;;5.07;60.70
10732;BME280;5417;42.686;23.244;2023-11-19T03:05:13;94283.38;;;5.15;60.61
10732;BME280;5417;42.686;23.244;2023-11-19T03:07:42;94285.50;;;5.22;60.40
10732;BME280;5417;42.686;23.244;2023-11-19T03:10:09;94287.50;;;5.17;60.70
10732;BME280;5417;42.686;23.244;2023-11-19T03:12:39;94311.56;;;5.18;60.61
10732;BME280;5417;42.686;23.244;2023-11-19T03:15:08;94316.56;;;5.21;60.76
10732;BME280;5417;42.686;23.244;2023-11-19T03:17:38;94310.09;;;5.28;60.53
10732;BME280;5417;42.686;23.244;2023-11-19T03:20:07;94314.13;;;5.32;60.50
10732;BME280;5417;42.686;23.244;2023-11-19T03:22:37;94315.41;;;5.39;59.99
10732;BME280;5417;42.686;23.244;2023-11-19T03:25:05;94313.03;;;5.36;60.60
10732;BME280;5417;42.686;23.244;2023-11-19T03:27:34;94307.22;;;5.32;60.20
10732;BME280;5417;42.686;23.244;2023-11-19T03:30:01;94306.19;;;5.35;60.00
10732;BME280;5417;42.686;23.244;2023-11-19T03:32:32;94309.81;;;5.32;60.31
10732;BME280;5417;42.686;23.244;2023-11-19T03:35:02;94308.34;;;5.28;59.16
10732;BME280;5417;42.686;23.244;2023-11-19T03:37:35;94308.44;;;5.27;60.26
10732;BME280;5417;42.686;23.244;2023-11-19T03:40:08;94309.34;;;5.26;59.94
10732;BME280;5417;42.686;23.244;2023-11-19T03:42:36;94317.84;;;5.28;60.37
10732;BME280;5417;42.686;23.244;2023-11-19T03:45:05;94326.22;;;5.31;60.48
10732;BME280;5417;42.686;23.244;2023-11-19T03:47:34;94345.94;;;5.32;60.31
10732;BME280;5417;42.686;23.244;2023-11-19T03:50:05;94346.38;;;5.39;59.94
10732;BME280;5417;42.686;23.244;2023-11-19T03:52:33;94345.44;;;5.40;59.95
10732;BME280;5417;42.686;23.244;2023-11-19T03:55:00;94351.63;;;5.37;59.74
10732;BME280;5417;42.686;23.244;2023-11-19T03:57:28;94330.78;;;5.41;59.44
10732;BME280;5417;42.686;23.244;2023-11-19T03:59:55;94330.88;;;5.39;59.52
10732;BME280;5417;42.686;23.244;2023-11-19T04:02:24;94331.63;;;5.41;60.26
10732;BME280;5417;42.686;23.244;2023-11-19T04:04:53;94344.91;;;5.35;60.14
10732;BME280;5417;42.686;23.244;2023-11-19T04:07:22;94354.78;;;5.28;60.21
10732;BME280;5417;42.686;23.244;2023-11-19T04:09:52;94355.63;;;5.29;59.43
10732;BME280;5417;42.686;23.244;2023-11-19T04:12:19;94365.94;;;5.29;60.59
10732;BME280;5417;42.686;23.244;2023-11-19T04:14:48;94365.66;;;5.33;60.51
10732;BME280;5417;42.686;23.244;2023-11-19T04:17:14;94371.28;;;5.26;59.78
10732;BME280;5417;42.686;23.244;2023-11-19T04:19:42;94370.06;;;5.31;60.37
10732;BME280;5417;42.686;23.244;2023-11-19T04:22:12;94364.19;;;5.29;59.68
10732;BME280;5417;42.686;23.244;2023-11-19T04:24:40;94365.75;;;5.32;60.01
10732;BME280;5417;42.686;23.244;2023-11-19T04:27:09;94371.53;;;5.35;60.05
10732;BME280;5417;42.686;23.244;2023-11-19T04:29:36;94364.44;;;5.39;59.25
10732;BME280;5417;42.686;23.244;2023-11-19T04:32:05;94378.81;;;5.43;59.59
10732;BME280;5417;42.686;23.244;2023-11-19T04:34:32;94380.28;;;5.47;59.23
10732;BME280;5417;42.686;23.244;2023-11-19T04:36:59;94350.16;;;5.33;59.28
10732;BME280;5417;42.686;23.244;2023-11-19T04:39:29;94373.38;;;5.48;59.42
10732;BME280;5417;42.686;23.244;2023-11-19T04:41:57;94368.03;;;5.36;59.02
10732;BME280;5417;42.686;23.244;2023-11-19T04:44:24;94367.41;;;5.33;59.09
10732;BME280;5417;42.686;23.244;2023-11-19T04:46:51;94364.91;;;5.31;59.72
10732;BME280;5417;42.686;23.244;2023-11-19T04:49:18;94369.81;;;5.22;59.46
10732;BME280;5417;42.686;23.244;2023-11-19T04:51:46;94366.94;;;5.26;59.26
10732;BME280;5417;42.686;23.244;2023-11-19T04:54:13;94356.09;;;5.21;59.73
10732;BME280;5417;42.686;23.244;2023-11-19T04:56:40;94355.41;;;5.18;59.37
10732;BME280;5417;42.686;23.244;2023-11-19T04:59:08;94358.09;;;5.02;59.46
10732;BME280;5417;42.686;23.244;2023-11-19T05:01:35;94367.50;;;5.03;59.94
10732;BME280;5417;42.686;23.244;2023-11-19T05:04:02;94377.44;;;5.09;60.50
10732;BME280;5417;42.686;23.244;2023-11-19T05:06:30;94389.78;;;5.04;60.64
10732;BME280;5417;42.686;23.244;2023-11-19T05:08:59;94389.25;;;4.99;60.74
10732;BME280;5417;42.686;23.244;2023-11-19T05:11:29;94401.13;;;5.01;59.98
10732;BME280;5417;42.686;23.244;2023-11-19T05:13:59;94400.19;;;5.02;60.04
10732;BME280;5417;42.686;23.244;2023-11-19T05:16:27;94402.59;;;5.05;59.83
10732;BME280;5417;42.686;23.244;2023-11-19T05:18:54;94395.50;;;5.09;60.01
10732;BME280;5417;42.686;23.244;2023-11-19T05:21:21;94394.78;;;5.21;60.32
10732;BME280;5417;42.686;23.244;2023-11-19T05:23:49;94383.97;;;5.15;59.71
10732;BME280;5417;42.686;23.244;2023-11-19T05:26:20;94383.69;;;5.19;59.71
10732;BME280;5417;42.686;23.244;2023-11-19T05:28:48;94399.00;;;5.36;59.58
10732;BME280;5417;42.686;23.244;2023-11-19T05:31:16;94388.03;;;5.33;59.19
10732;BME280;5417;42.686;23.244;2023-11-19T05:33:45;94389.31;;;5.12;59.30
10732;BME280;5417;42.686;23.244;2023-11-19T05:36:12;94398.16;;;5.07;59.98
10732;BME280;5417;42.686;23.244;2023-11-19T05:38:40;94406.19;;;5.03;60.37
10732;BME280;5417;42.686;23.244;2023-11-19T05:41:07;94396.06;;;5.00;59.99
10732;BME280;5417;42.686;23.244;2023-11-19T05:43:34;94406.09;;;4.90;60.30
10732;BME280;5417;42.686;23.244;2023-11-19T05:46:01;94407.19;;;4.72;60.85
10732;BME280;5417;42.686;23.244;2023-11-19T05:48:28;94416.16;;;4.65;61.49
10732;BME280;5417;42.686;23.244;2023-11-19T05:50:57;94410.09;;;4.66;61.89
10732;BME280;5417;42.686;23.244;2023-11-19T05:53:24;94405.75;;;4.66;61.27
10732;BME280;5417;42.686;23.244;2023-11-19T05:55:50;94407.28;;;4.70;61.06
10732;BME280;5417;42.686;23.244;2023-11-19T05:58:23;94413.22;;;4.57;61.36
10732;BME280;5417;42.686;23.244;2023-11-19T06:00:51;94412.47;;;4.55;61.62
10732;BME280;5417;42.686;23.244;2023-11-19T06:03:18;94421.50;;;4.62;62.12
10732;BME280;5417;42.686;23.244;2023-11-19T06:05:46;94429.78;;;4.67;61.81
10732;BME280;5417;42.686;23.244;2023-11-19T06:08:15;94437.59;;;4.81;61.44
10732;BME280;5417;42.686;23.244;2023-11-19T06:10:43;94437.22;;;4.87;61.17
10732;BME280;5417;42.686;23.244;2023-11-19T06:13:11;94434.19;;;4.95;61.49
10732;BME280;5417;42.686;23.244;2023-11-19T06:15:40;94429.41;;;5.03;61.06
10732;BME280;5417;42.686;23.244;2023-11-19T06:18:07;94417.78;;;5.10;61.16
10732;BME280;5417;42.686;23.244;2023-11-19T06:20:35;94432.63;;;5.06;60.29
10732;BME280;5417;42.686;23.244;2023-11-19T06:23:02;94434.47;;;5.04;60.51
10732;BME280;5417;42.686;23.244;2023-11-19T06:25:30;94433.81;;;5.01;60.77
10732;BME280;5417;42.686;23.244;2023-11-19T06:27:58;94436.88;;;5.07;61.05
10732;BME280;5417;42.686;23.244;2023-11-19T06:30:25;94447.31;;;5.20;60.34
10732;BME280;5417;42.686;23.244;2023-11-19T06:32:53;94440.41;;;5.21;59.92
10732;BME280;5417;42.686;23.244;2023-11-19T06:35:20;94426.56;;;5.22;59.77
10732;BME280;5417;42.686;23.244;2023-11-19T06:37:47;94442.06;;;5.22;59.88
10732;BME280;5417;42.686;23.244;2023-11-19T06:40:14;94445.72;;;5.18;59.70
10732;BME280;5417;42.686;23.244;2023-11-19T06:42:43;94447.91;;;4.95;59.58
10732;BME280;5417;42.686;23.244;2023-11-19T06:45:11;94440.06;;;4.83;60.03
10732;BME280;5417;42.686;23.244;2023-11-19T06:47:38;94438.13;;;4.72;60.43
10732;BME280;5417;42.686;23.244;2023-11-19T06:50:06;94446.28;;;4.64;60.55
10732;BME280;5417;42.686;23.244;2023-11-19T06:52:34;94437.19;;;4.73;61.19
10732;BME280;5417;42.686;23.244;2023-11-19T06:55:03;94434.81;;;4.84;60.82
10732;BME280;5417;42.686;23.244;2023-11-19T06:57:30;94432.69;;;4.77;61.09
10732;BME280;5417;42.686;23.244;2023-11-19T06:59:59;94448.19;;;4.91;60.49
10732;BME280;5417;42.686;23.244;2023-11-19T07:02:26;94449.28;;;4.87;59.42
10732;BME280;5417;42.686;23.244;2023-11-19T07:04:53;94440.81;;;4.85;59.54
10732;BME280;5417;42.686;23.244;2023-11-19T07:07:20;94443.47;;;4.83;60.02
10732;BME280;5417;42.686;23.244;2023-11-19T07:09:47;94455.09;;;4.90;60.48
10732;BME280;5417;42.686;23.244;2023-11-19T07:12:14;94460.53;;;5.00;60.58
10732;BME280;5417;42.686;23.244;2023-11-19T07:14:41;94459.72;;;4.99;59.71
10732;BME280;5417;42.686;23.244;2023-11-19T07:17:09;94451.78;;;5.02;59.53
10732;BME280;5417;42.686;23.244;2023-11-19T07:19:36;94440.91;;;4.97;60.09
10732;BME280;5417;42.686;23.244;2023-11-19T07:22:05;94449.22;;;5.02;60.01
10732;BME280;5417;42.686;23.244;2023-11-19T07:24:32;94449.84;;;4.92;60.49
10732;BME280;5417;42.686;23.244;2023-11-19T07:26:59;94448.56;;;4.99;60.44
10732;BME280;5417;42.686;23.244;2023-11-19T07:29:26;94456.28;;;4.99;59.91
10732;BME280;5417;42.686;23.244;2023-11-19T07:31:53;94457.69;;;5.04;60.58
10732;BME280;5417;42.686;23.244;2023-11-19T07:34:22;94457.13;;;5.14;59.28
10732;BME280;5417;42.686;23.244;2023-11-19T07:36:50;94456.28;;;4.99;59.35
10732;BME280;5417;42.686;23.244;2023-11-19T07:39:17;94455.53;;;4.83;58.99
10732;BME280;5417;42.686;23.244;2023-11-19T07:41:44;94461.53;;;4.83;59.57
10732;BME280;5417;42.686;23.244;2023-11-19T07:44:11;94477.56;;;4.88;60.24
10732;BME280;5417;42.686;23.244;2023-11-19T07:46:38;94469.66;;;4.91;59.46
10732;BME280;5417;42.686;23.244;2023-11-19T07:49:07;94471.00;;;4.83;59.52
10732;BME280;5417;42.686;23.244;2023-11-19T07:51:36;94474.25;;;4.86;59.55
10732;BME280;5417;42.686;23.244;2023-11-19T07:54:04;94478.03;;;4.95;59.68
10732;BME280;5417;42.686;23.244;2023-11-19T07:56:31;94474.81;;;5.05;59.44
10732;BME280;5417;42.686;23.244;2023-11-19T07:58:59;94462.09;;;5.02;58.84
10732;BME280;5417;42.686;23.244;2023-11-19T08:01:26;94466.19;;;5.21;58.72
10732;BME280;5417;42.686;23.244;2023-11-19T08:03:53;94472.41;;;4.88;58.57
10732;BME280;5417;42.686;23.244;2023-11-19T08:06:20;94487.44;;;4.96;58.52
10732;BME280;5417;42.686;23.244;2023-11-19T08:08:49;94493.16;;;5.01;58.45
10732;BME280;5417;42.686;23.244;2023-11-19T08:11:17;94501.22;;;4.81;58.79
10732;BME280;5417;42.686;23.244;2023-11-19T08:13:45;94493.38;;;4.82;59.06
10732;BME280;5417;42.686;23.244;2023-11-19T08:16:12;94508.28;;;4.77;59.15
10732;BME280;5417;42.686;23.244;2023-11-19T08:18:42;94502.78;;;4.83;59.25
10732;BME280;5417;42.686;23.244;2023-11-19T08:21:09;94510.53;;;4.83;59.73
10732;BME280;5417;42.686;23.244;2023-11-19T08:23:38;94480.59;;;4.81;59.32
10732;BME280;5417;42.686;23.244;2023-11-19T08:26:07;94513.22;;;4.96;59.11
10732;BME280;5417;42.686;23.244;2023-11-19T08:28:34;94507.53;;;5.05;59.09
10732;BME280;5417;42.686;23.244;2023-11-19T08:31:01;94501.34;;;5.07;58.63
10732;BME280;5417;42.686;23.244;2023-11-19T08:33:29;94504.84;;;5.06;58.14
10732;BME280;5417;42.686;23.244;2023-11-19T08:35:57;94506.16;;;5.14;58.74
10732;BME280;5417;42.686;23.244;2023-11-19T08:38:24;94513.81;;;5.15;58.27
10732;BME280;5417;42.686;23.244;2023-11-19T08:40:52;94524.09;;;5.01;58.26
10732;BME280;5417;42.686;23.244;2023-11-19T08:43:20;94519.50;;;5.06;58.47
10732;BME280;5417;42.686;23.244;2023-11-19T08:45:48;94509.38;;;5.03;58.09
10732;BME280;5417;42.686;23.244;2023-11-19T08:48:15;94512.03;;;5.01;58.68
10732;BME280;5417;42.686;23.244;2023-11-19T08:50:42;94503.38;;;5.02;58.54
10732;BME280;5417;42.686;23.244;2023-11-19T08:53:09;94504.41;;;5.14;58.39
10732;BME280;5417;42.686;23.244;2023-11-19T08:55:36;94519.69;;;5.17;57.68
10732;BME280;5417;42.686;23.244;2023-11-19T08:58:03;94524.66;;;5.06;57.73
10732;BME280;5417;42.686;23.244;2023-11-19T09:00:32;94524.09;;;5.01;58.01
10732;BME280;5417;42.686;23.244;2023-11-19T09:02:59;94513.25;;;5.10;58.13
10732;BME280;5417;42.686;23.244;2023-11-19T09:05:25;94498.91;;;5.20;57.91
10732;BME280;5417;42.686;23.244;2023-11-19T09:07:52;94514.41;;;5.34;57.69
10732;BME280;5417;42.686;23.244;2023-11-19T09:10:20;94507.59;;;5.33;57.43
10732;BME280;5417;42.686;23.244;2023-11-19T09:12:47;94494.69;;;5.48;57.60
10732;BME280;5417;42.686;23.244;2023-11-19T09:15:14;94495.59;;;5.61;56.43
10732;BME280;5417;42.686;23.244;2023-11-19T09:17:43;94493.56;;;5.66;57.07
10732;BME280;5417;42.686;23.244;2023-11-19T09:20:11;94499.09;;;5.60;55.78
10732;BME280;5417;42.686;23.244;2023-11-19T09:22:40;94507.22;;;5.54;56.25
10732;BME280;5417;42.686;23.244;2023-11-19T09:25:08;94511.28;;;5.58;55.89
10732;BME280;5417;42.686;23.244;2023-11-19T09:27:35;94515.41;;;5.60;55.98
10732;BME280;5417;42.686;23.244;2023-11-19T09:30:03;94516.81;;;5.52;56.45
10732;BME280;5417;42.686;23.244;2023-11-19T09:32:30;94512.75;;;5.33;56.32
10732;BME280;5417;42.686;23.244;2023-11-19T09:34:59;94498.28;;;5.45;57.47
10732;BME280;5417;42.686;23.244;2023-11-19T09:37:26;94488.97;;;5.57;56.78
10732;BME280;5417;42.686;23.244;2023-11-19T09:39:56;94468.88;;;5.48;56.98
10732;BME280;5417;42.686;23.244;2023-11-19T09:42:24;94480.56;;;5.25;57.58
10732;BME280;5417;42.686;23.244;2023-11-19T09:44:51;94476.38;;;4.94;58.77
10732;BME280;5417;42.686;23.244;2023-11-19T09:47:19;94473.69;;;4.95;59.14
10732;BME280;5417;42.686;23.244;2023-11-19T09:49:46;94467.44;;;4.99;59.00
10732;BME280;5417;42.686;23.244;2023-11-19T09:52:16;94451.88;;;5.01;58.44
10732;BME280;5417;42.686;23.244;2023-11-19T09:54:43;94447.28;;;5.06;58.90
10732;BME280;5417;42.686;23.244;2023-11-19T09:57:16;94445.78;;;4.88;58.74
10732;BME280;5417;42.686;23.244;2023-11-19T09:59:44;94439.91;;;5.00;59.28
10732;BME280;5417;42.686;23.244;2023-11-19T10:02:12;94442.06;;;5.22;59.75
10732;BME280;5417;42.686;23.244;2023-11-19T10:04:44;94449.72;;;5.23;58.56
10732;BME280;5417;42.686;23.244;2023-11-19T10:07:13;94447.50;;;5.31;58.69
10732;BME280;5417;42.686;23.244;2023-11-19T10:09:42;94444.91;;;5.46;57.63
10732;BME280;5417;42.686;23.244;2023-11-19T10:12:09;94444.53;;;5.23;56.60
10732;BME280;5417;42.686;23.244;2023-11-19T10:14:37;94443.22;;;5.16;57.27
10732;BME280;5417;42.686;23.244;2023-11-19T10:17:07;94448.19;;;5.19;57.49
10732;BME280;5417;42.686;23.244;2023-11-19T10:19:34;94456.63;;;5.23;57.90
10732;BME280;5417;42.686;23.244;2023-11-19T10:22:04;94468.47;;;5.11;57.89
10732;BME280;5417;42.686;23.244;2023-11-19T10:24:32;94458.84;;;5.29;57.77
10732;BME280;5417;42.686;23.244;2023-11-19T10:27:01;94454.22;;;5.48;58.45
10732;BME280;5417;42.686;23.244;2023-11-19T10:29:29;94444.44;;;5.53;56.77
10732;BME280;5417;42.686;23.244;2023-11-19T10:31:56;94430.31;;;5.59;56.41
10732;BME280;5417;42.686;23.244;2023-11-19T10:34:25;94427.81;;;5.71;57.09
10732;BME280;5417;42.686;23.244;2023-11-19T10:36:52;94424.47;;;5.84;56.76
10732;BME280;5417;42.686;23.244;2023-11-19T10:39:19;94427.69;;;6.01;55.78
10732;BME280;5417;42.686;23.244;2023-11-19T10:41:49;94441.09;;;5.94;55.43
10732;BME280;5417;42.686;23.244;2023-11-19T10:47:11;94425.69;;;5.64;56.27
10732;BME280;5417;42.686;23.244;2023-11-19T10:49:42;94445.88;;;5.71;56.27
10732;BME280;5417;42.686;23.244;2023-11-19T10:52:12;94444.06;;;5.74;56.36
10732;BME280;5417;42.686;23.244;2023-11-19T10:54:43;94443.78;;;5.78;56.94
10732;BME280;5417;42.686;23.244;2023-11-19T10:57:12;94436.66;;;5.82;56.15
10732;BME280;5417;42.686;23.244;2023-11-19T10:59:46;94427.69;;;5.87;55.58
10732;BME280;5417;42.686;23.244;2023-11-19T11:02:19;94432.47;;;6.08;56.62
10732;BME280;5417;42.686;23.244;2023-11-19T11:04:49;94429.00;;;6.21;54.66
10732;BME280;5417;42.686;23.244;2023-11-19T11:07:21;94412.09;;;6.30;55.18
10732;BME280;5417;42.686;23.244;2023-11-19T11:09:51;94387.59;;;6.36;54.25
10732;BME280;5417;42.686;23.244;2023-11-19T11:12:21;94392.50;;;6.53;53.94
10732;BME280;5417;42.686;23.244;2023-11-19T11:14:49;94386.50;;;6.65;53.57
10732;BME280;5417;42.686;23.244;2023-11-19T11:17:18;94383.66;;;6.82;53.77
10732;BME280;5417;42.686;23.244;2023-11-19T11:19:48;94388.31;;;6.90;53.33
10732;BME280;5417;42.686;23.244;2023-11-19T11:22:16;94381.69;;;7.11;54.46
10732;BME280;5417;42.686;23.244;2023-11-19T11:25:06;94380.84;;;6.98;52.76
10732;BME280;5417;42.686;23.244;2023-11-19T11:28:04;94375.47;;;7.14;52.99
10732;BME280;5417;42.686;23.244;2023-11-19T11:31:04;94381.56;;;7.13;51.10
10732;BME280;5417;42.686;23.244;2023-11-19T11:33:45;94378.56;;;7.32;52.04
10732;BME280;5417;42.686;23.244;2023-11-19T11:36:22;94380.94;;;7.35;52.60
10732;BME280;5417;42.686;23.244;2023-11-19T11:38:49;94378.03;;;7.39;51.31
10732;BME280;5417;42.686;23.244;2023-11-19T11:41:18;94354.59;;;7.53;51.54
10732;BME280;5417;42.686;23.244;2023-11-19T11:43:45;94358.03;;;7.78;52.27
10732;BME280;5417;42.686;23.244;2023-11-19T11:49:27;94344.16;;;8.03;49.96
10732;BME280;5417;42.686;23.244;2023-11-19T11:51:59;94332.38;;;7.99;50.44
10732;BME280;5417;42.686;23.244;2023-11-19T11:54:26;94335.25;;;8.18;49.48
10732;BME280;5417;42.686;23.244;2023-11-19T11:57:18;94340.22;;;8.34;49.59
10732;BME280;5417;42.686;23.244;2023-11-19T11:59:48;94342.47;;;8.26;48.73
10732;BME280;5417;42.686;23.244;2023-11-19T12:02:17;94346.22;;;8.34;49.09
10732;BME280;5417;42.686;23.244;2023-11-19T12:04:48;94347.06;;;8.22;48.20
10732;BME280;5417;42.686;23.244;2023-11-19T12:07:17;94333.22;;;8.10;47.24
10732;BME280;5417;42.686;23.244;2023-11-19T12:09:50;94333.75;;;8.27;48.63
10732;BME280;5417;42.686;23.244;2023-11-19T12:12:20;94325.03;;;8.40;48.06
10732;BME280;5417;42.686;23.244;2023-11-19T12:15:00;94330.94;;;8.42;48.90
10732;BME280;5417;42.686;23.244;2023-11-19T12:17:44;94323.41;;;8.62;48.57
10732;BME280;5417;42.686;23.244;2023-11-19T12:20:16;94319.63;;;8.54;47.00
10732;BME280;5417;42.686;23.244;2023-11-19T12:22:45;94315.63;;;8.50;48.39
10732;BME280;5417;42.686;23.244;2023-11-19T12:25:12;94299.47;;;8.47;47.61
10732;BME280;5417;42.686;23.244;2023-11-19T12:27:40;94302.41;;;8.42;48.00
10732;BME280;5417;42.686;23.244;2023-11-19T12:30:08;94306.88;;;8.40;48.14
10732;BME280;5417;42.686;23.244;2023-11-19T12:32:39;94299.81;;;8.30;48.29
10732;BME280;5417;42.686;23.244;2023-11-19T12:35:07;94275.75;;;8.16;49.33
10732;BME280;5417;42.686;23.244;2023-11-19T12:37:45;94297.91;;;8.20;49.82
10732;BME280;5417;42.686;23.244;2023-11-19T12:40:16;94305.72;;;7.97;48.53
10732;BME280;5417;42.686;23.244;2023-11-19T12:42:44;94298.91;;;7.96;49.86
10732;BME280;5417;42.686;23.244;2023-11-19T12:45:11;94298.19;;;7.94;50.12
10732;BME280;5417;42.686;23.244;2023-11-19T12:47:39;94304.56;;;8.01;49.33
10732;BME280;5417;42.686;23.244;2023-11-19T12:50:07;94290.63;;;7.90;49.16
10732;BME280;5417;42.686;23.244;2023-11-19T12:52:34;94282.91;;;7.78;49.61
10732;BME280;5417;42.686;23.244;2023-11-19T12:55:03;94285.91;;;7.84;50.39
10732;BME280;5417;42.686;23.244;2023-11-19T12:57:41;94288.59;;;7.83;49.92
10732;BME280;5417;42.686;23.244;2023-11-19T13:00:18;94288.69;;;7.57;48.50
10732;BME280;5417;42.686;23.244;2023-11-19T13:02:48;94290.00;;;7.63;50.17
10732;BME280;5417;42.686;23.244;2023-11-19T13:05:26;94281.69;;;7.47;49.28
10732;BME280;5417;42.686;23.244;2023-11-19T13:08:00;94284.31;;;7.34;48.96
10732;BME280;5417;42.686;23.244;2023-11-19T13:10:29;94283.44;;;7.46;49.89
10732;BME280;5417;42.686;23.244;2023-11-19T13:13:01;94279.50;;;7.53;50.07
10732;BME280;5417;42.686;23.244;2023-11-19T13:15:29;94287.59;;;7.49;50.08
10732;BME280;5417;42.686;23.244;2023-11-19T13:17:56;94290.19;;;7.49;49.24
10732;BME280;5417;42.686;23.244;2023-11-19T13:20:23;94279.88;;;7.36;48.50
10732;BME280;5417;42.686;23.244;2023-11-19T13:22:57;94271.78;;;7.28;48.45
10732;BME280;5417;42.686;23.244;2023-11-19T13:25:25;94254.00;;;7.23;48.38